EZY2TL EGCC-EHRD
Flight info
| Callsign | EZY2TL |
|---|---|
| Flight time | N/A |
| Altitude | 33000 |
| Route | SONEX UL975 DESIG L603 LAMSO |
| Aircraft | A20N/M-SDE2E3FGHIRWXY/LB1 |
Departure
| Time | 2026-05-04 16:15 |
|---|---|
| Airport | Manchester Airport (EGCC) |
Arrival
| Time | N/A |
|---|---|
| Airport | Rotterdam The Hague Airport (EHRD) |
| Time | Latitude | Longitude | Altitude | Speed | Heading |
|---|---|---|---|---|---|
| 2026-05-04 15:42 | 53.36002 | -2.27129 | 250 ft | 0 kts | 90° |
| 2026-05-04 15:57 | 53.36002 | -2.27131 | 250 ft | 2 kts | 90° |
| 2026-05-04 15:58 | 53.36002 | -2.27172 | 249 ft | 4 kts | 90° |
| 2026-05-04 15:58 | 53.36002 | -2.27217 | 249 ft | 4 kts | 90° |
| 2026-05-04 15:58 | 53.36002 | -2.27263 | 249 ft | 4 kts | 90° |
| 2026-05-04 15:58 | 53.36002 | -2.27279 | 248 ft | 0 kts | 90° |
| 2026-05-04 16:03 | 53.35993 | -2.27238 | 249 ft | 3 kts | 153° |
| 2026-05-04 16:04 | 53.35963 | -2.27239 | 248 ft | 7 kts | 180° |
| 2026-05-04 16:04 | 53.35861 | -2.27218 | 248 ft | 8 kts | 173° |
| 2026-05-04 16:04 | 53.35815 | -2.27179 | 248 ft | 7 kts | 138° |
| 2026-05-04 16:05 | 53.35772 | -2.27157 | 248 ft | 7 kts | 195° |
| 2026-05-04 16:05 | 53.35731 | -2.27196 | 247 ft | 7 kts | 200° |
| 2026-05-04 16:05 | 53.35708 | -2.27193 | 247 ft | 0 kts | 161° |
| 2026-05-04 16:06 | 53.35696 | -2.27185 | 247 ft | 4 kts | 155° |
| 2026-05-04 16:07 | 53.35668 | -2.27147 | 247 ft | 4 kts | 139° |
| 2026-05-04 16:07 | 53.35553 | -2.26989 | 247 ft | 9 kts | 141° |
| 2026-05-04 16:08 | 53.35507 | -2.26927 | 247 ft | 8 kts | 141° |
| 2026-05-04 16:08 | 53.35367 | -2.27046 | 244 ft | 11 kts | 231° |
| 2026-05-04 16:09 | 53.35252 | -2.27216 | 242 ft | 11 kts | 192° |
| 2026-05-04 16:09 | 53.35167 | -2.27244 | 242 ft | 0 kts | 191° |
| 2026-05-04 16:10 | 53.35137 | -2.27253 | 242 ft | 6 kts | 191° |
| 2026-05-04 16:11 | 53.34980 | -2.27385 | 239 ft | 9 kts | 231° |
| 2026-05-04 16:11 | 53.34976 | -2.27393 | 239 ft | 0 kts | 231° |
| 2026-05-04 16:14 | 53.34718 | -2.27928 | 233 ft | 95 kts | 231° |
| 2026-05-04 16:15 | 53.32494 | -2.32367 | 1956 ft | 188 kts | 230° |
| 2026-05-04 16:16 | 53.31613 | -2.36843 | 2975 ft | 240 kts | 284° |
| 2026-05-04 16:16 | 53.35651 | -2.41688 | 5588 ft | 261 kts | 343° |
| 2026-05-04 16:17 | 53.39222 | -2.41000 | 7344 ft | 275 kts | 33° |
| 2026-05-04 16:18 | 53.41214 | -2.32198 | 10095 ft | 290 kts | 89° |
| 2026-05-04 16:18 | 53.41217 | -2.28736 | 10640 ft | 307 kts | 90° |
| 2026-05-04 16:19 | 53.41198 | -2.16986 | 12200 ft | 354 kts | 90° |
| 2026-05-04 16:19 | 53.41193 | -2.08607 | 13886 ft | 364 kts | 90° |
| 2026-05-04 16:20 | 53.41184 | -1.95806 | 16161 ft | 376 kts | 94° |
| 2026-05-04 16:20 | 53.40392 | -1.87050 | 17685 ft | 383 kts | 102° |
| 2026-05-04 16:21 | 53.38642 | -1.73814 | 19669 ft | 393 kts | 104° |
| 2026-05-04 16:22 | 53.37386 | -1.64848 | 20987 ft | 398 kts | 104° |
| 2026-05-04 16:22 | 53.35501 | -1.51250 | 22853 ft | 405 kts | 103° |
| 2026-05-04 16:23 | 53.33571 | -1.37315 | 24377 ft | 414 kts | 103° |
| 2026-05-04 16:24 | 53.30910 | -1.18319 | 26121 ft | 424 kts | 103° |